COYOTE (LAKE MENDOCINO) (COY)

Elevation: 720' · RUSSIAN R basin · Operator: US Army Corps of Engineers

Provisional data, subject to change.
Query executed Saturday at 8:47:30   clock

Select a sensor type for a plot of data.
Note: Reservoir Flows are daily averages.

Earlier

Date RES ELE    STORAGE    RES CHG    TOC STO    ABV TOC    OUTFLOW    INFLOW    PPT INC    TEMP MN    TEMP MX    EVP PAN   
 FEET   AF   AF   AF   AF   CFS   CFS   INCHES   DEG F   DEG F   INCHES  
09/26/2014 711.15 30062 23 86370 -56308 99 116 0.57 10 24 0.14
09/27/2014 711.16 30074 12 86370 -56296 99 112 0.06 10 25 0.16
09/28/2014 711.16 30074 0 86370 -56296 97 103 0.01 10 27 0.14
09/29/2014 711.17 30085 11 86370 -56285 93 106 0.01 11 28 0.17
09/30/2014 711.16 30074 -11 86370 -56296 93 96 0.00 10 28 0.17
10/01/2014 711.15 30062 -12 86370 -56308 95 98 0.00 8 34 0.20
10/02/2014 711.13 30039 -23 86370 -56331 99 96 0.00 8 35 0.19
10/03/2014 711.08 29982 -57 86370 -56388 99 79 0.01 9 37 0.20
10/04/2014 711.03 29924 -58 86370 -56446 99 79 0.01 9 38 0.20
10/05/2014 710.98 29867 -57 86370 -56503 99 79 0.01 11 38 0.20
10/06/2014 710.94 29821 -46 86370 -56549 99 84 0.00 12 39 0.20
10/07/2014 710.85 29719 -102 86370 -56651 99 56 0.00 9 37 0.20
10/08/2014 710.79 29651 -68 86370 -56719 99 73 0.00 11 35 0.19
10/09/2014 710.72 29571 -80 86370 -56799 100 68 0.00 10 32 0.17
10/10/2014 710.65 29492 -79 86370 -56878 101 70 0.00 9 33 0.18
10/11/2014 710.59 29424 -68 86370 -56946 101 75 0.00 10 31 0.17
10/12/2014 710.54 29368 -56 86370 -57002 101 81 0.00 10 36 0.19
10/13/2014 710.52 29345 -23 85854 -56509 101 97 0.00 10 35 0.17
10/14/2014 710.49 29311 -34 84885 -55574 100 85 0.00 10 18 0.05
10/15/2014 710.50 29323 12 83916 -54593 r 98 109 0.11 11 21 0.10
10/16/2014 710.44 29255 -68 82947 -53692 98 69 0.00 7 24 0.12
10/17/2014 710.34 29143 -112 81978 -52835 99 44 0.00 8 19 0.05
10/18/2014 710.25 29043 -100 81009 -51966 99 54 0.02 14 28 0.13
10/19/2014 710.16 28942 -101 80040 -51098 99 53 0.00 13 27 0.12
10/20/2014 710.10 28876 -66 79070 -50194 96 66 0.09 11 21 0.09
10/21/2014 710.01 28776 -100 78101 -49325 92 47 0.00 8 21 0.10
10/22/2014 709.94 28699 -77 77132 -48433 86 51 0.00 8 22 0.09
10/23/2014 709.91 28666 -33 76163 -47497 86 71 0.21 14 17 0.04
10/24/2014 709.83 28578 -88 75194 -46616 86 47 0.04 13 23 0.12
10/25/2014 -- -- -- -- -- -- -- -- -- -- --

Later | Latest

Warning! This data is preliminary and subject to revision.

Show COY Map | Plot COY Data | 1 Month COY Data | Real-Time COY Data | COY Info